EFHKEFTP

Guest
Details From EFHK - Helsinki Vantaa
To EFTP - Tampere Pirkkala
Flight Number -
Tags Routegen Generated
Created
Modified
Stats Distance 90 nm / 166 km
Max Altitude 200 ft / 61 m
Waypoints 14
Social Downloads 32
Likes 0
Share

Download

Looking for another format? Having issues loading an existing format? Contact us
Advertisement - Login to hide

Notes

Departing runway 4 EFHK. Arriving runway 6 EFTP.

Route

EFHK +60.38_+025.09 +60.43_+025.14 +60.49_+025.16 +60.54_+025.13 +60.59_+025.07 +60.91_+024.69 +61.31_+024.20 +61.36_+024.17 +61.41_+024.10 +61.44_+024.00 +61.46_+023.88 +61.45_+023.76 EFTP

ID Type Via Altitude (ft/m) Position (lat/lon) Dist (leg/tot) Name
O EFHK APT - 0 / 0 60.33069 / 24.97909 - / 0 nm
+60.38_+025.09 LATLON - 200 / 61 60.37954 / 25.08703 4 / 4 nm
+60.43_+025.14 LATLON - 200 / 61 60.43088 / 25.14119 3 / 7 nm
+60.49_+025.16 LATLON - 200 / 61 60.48828 / 25.15652 3 / 11 nm
+60.54_+025.13 LATLON - 200 / 61 60.54480 / 25.13103 3 / 14 nm
+60.59_+025.07 LATLON - 200 / 61 60.59360 / 25.06767 3 / 18 nm
+60.91_+024.69 LATLON - 200 / 61 60.90935 / 24.68752 22 / 40 nm
+61.31_+024.20 LATLON - 200 / 61 61.30590 / 24.20401 27 / 67 nm
+61.36_+024.17 LATLON - 200 / 61 61.36168 / 24.17168 3 / 71 nm
+61.41_+024.10 LATLON - 200 / 61 61.40879 / 24.10144 3 / 74 nm
+61.44_+024.00 LATLON - 200 / 61 61.44158 / 24.00167 3 / 78 nm
+61.46_+023.88 LATLON - 200 / 61 61.45607 / 23.88440 3 / 81 nm
+61.45_+023.76 LATLON - 200 / 61 61.45052 / 23.76381 3 / 85 nm
O EFTP APT - 0 / 0 61.41937 / 23.62721 4 / 89 nm

Altitude Profile

Advertisement - Login to hide

EFHK

Details ICAO EFHK (HEL)
Name Helsinki Vantaa Intl
Region Finland
Timezone Europe/Helsinki (UTC+3.0)
Stats Elevation 180 ft / 55 m (AMSL)
Location 60.317200° 24.963300°
Runways 3
Magnetic Variation 9.391° E

METAR

EFHK 180920Z 28008KT 250V310 CAVOK 11/05 Q1018 NOSIG

Decode

TAF

TAF EFHK 180826Z 1809/1909 27009KT CAVOK= TAF EFJY 180829Z 1809/1909 22007KT 9999 FEW046 BECMG 1814/1816 30012G23KT

Decode

Departure Runways

ID Width Length Bearing (true/mag) Surface Threshold Overrun Markings Lighting
04L 197 ft / 60 m 10,047 ft / 3,062 m 47.51° / 38.12° ASPHALT 0 ft / 0 m 236 ft / 72 m PREC-APP CENTERLINE EDGE THRESHOLD ALSF-I TDZ REIL-OMNI
04R 197 ft / 60 m 11,492 ft / 3,503 m 47.48° / 38.09° ASPHALT 991 ft / 302 m 207 ft / 63 m PREC-APP CENTERLINE EDGE THRESHOLD ALSF-I TDZ REIL-OMNI
15 197 ft / 60 m 9,527 ft / 2,904 m 153.08° / 143.69° ASPHALT 0 ft / 0 m 213 ft / 65 m PREC-APP CENTERLINE EDGE THRESHOLD ALSF-I TDZ REIL-OMNI
22L 197 ft / 60 m 11,492 ft / 3,503 m 227.52° / 218.13° ASPHALT 0 ft / 0 m 0 ft / 0 m PREC-APP CENTERLINE EDGE THRESHOLD ALSF-I TDZ REIL-OMNI
22R 197 ft / 60 m 10,047 ft / 3,062 m 227.54° / 218.15° ASPHALT 197 ft / 60 m 236 ft / 72 m PREC-APP CENTERLINE EDGE THRESHOLD ALSF-I TDZ REIL-OMNI
33 197 ft / 60 m 9,527 ft / 2,904 m 333.10° / 323.71° ASPHALT 0 ft / 0 m 472 ft / 144 m PREC-APP CENTERLINE EDGE THRESHOLD MALSF TDZ REIL-OMNI

EFTP

Details ICAO EFTP (TMP)
Name Tampere Pirkkala Airport
Region Finland
Timezone Europe/Helsinki (UTC+3.0)
Stats Elevation 391 ft / 119 m (AMSL)
Location 61.414200° 23.604400°
Runways 1
Magnetic Variation 9.209° E

METAR

EFTP 180920Z 23011KT 9999 SCT044 12/04 Q1016

Decode

TAF

TAF EFTP 180829Z 1809/1909 24010KT CAVOK BECMG 1813/1815 30012G23KT

Decode

Destination Runways

ID Width Length Bearing (true/mag) Surface Threshold Overrun Markings Lighting
06 148 ft / 45 m 8,865 ft / 2,702 m 64.39° / 55.18° ASPHALT 0 ft / 0 m 0 ft / 0 m PREC-APP EDGE THRESHOLD CALVERT
24 148 ft / 45 m 8,865 ft / 2,702 m 244.43° / 235.22° ASPHALT 0 ft / 0 m 0 ft / 0 m PREC-APP EDGE THRESHOLD CALVERT

Approach Navaids

Runway Type Ident Frequency Range Bearing (true/mag) Slope Elevation
24 OM OM - - 244.43° / 235.22 ° - 390 ft / 119 m (AMSL)
24 LOC-ILS TP 109.70 MHz 18 nm / 33 km 244.42° / 235.21 ° - 391 ft / 119 m (AMSL)
24 GS TP 109.70 MHz 10 nm / 19 km 244.42° / 235.21 ° 3.00° 387 ft / 118 m (AMSL)
24 MM MM - - 244.43° / 235.22 ° - 390 ft / 119 m (AMSL)

Popular Alternatives